createdAt,value
2023-03-26T00:00:26.932Z,100550.09
2023-03-26T00:00:59.831Z,100547.03
2023-03-26T00:01:36.447Z,100545.19
2023-03-26T00:02:08.313Z,100543.34
2023-03-26T00:02:39.932Z,100550.69
2023-03-26T00:03:12.436Z,100540.91
2023-03-26T00:03:47.135Z,100546.22
2023-03-26T00:04:21.694Z,100544.38
2023-03-26T00:04:53.242Z,100550.31
2023-03-26T00:05:24.781Z,100542.94
2023-03-26T00:06:09.123Z,100541.53
2023-03-26T00:06:41.741Z,100546.22
2023-03-26T00:07:13.678Z,100549.88
2023-03-26T00:07:45.205Z,100543.34
2023-03-26T00:08:17.157Z,100549.47
2023-03-26T00:08:50.079Z,100554.34
2023-03-26T00:09:21.660Z,100548.66
2023-03-26T00:09:53.425Z,100543.97
2023-03-26T00:10:25.481Z,100550.69
2023-03-26T00:10:57.050Z,100548.25
2023-03-26T00:11:29.560Z,100548.66
2023-03-26T00:12:01.131Z,100544.59
2023-03-26T00:12:32.630Z,100546.63
2023-03-26T00:13:05.738Z,100554.16
2023-03-26T00:13:37.963Z,100551.50
2023-03-26T00:14:13.717Z,100551.28
2023-03-26T00:14:46.352Z,100547.84
2023-03-26T00:15:18.005Z,100547.63
2023-03-26T00:15:49.549Z,100557.22
2023-03-26T00:16:21.191Z,100555.16
2023-03-26T00:16:53.725Z,100553.53
2023-03-26T00:17:25.384Z,100557.00
2023-03-26T00:17:56.925Z,100555.34
2023-03-26T00:18:31.535Z,100556.19
2023-03-26T00:19:04.092Z,100555.97
2023-03-26T00:19:35.604Z,100552.72
2023-03-26T00:20:08.312Z,100557.41
2023-03-26T00:20:41.415Z,100559.63
2023-03-26T00:21:15.494Z,100555.34
2023-03-26T00:21:48.372Z,100549.06
2023-03-26T00:22:19.974Z,100561.72
2023-03-26T00:22:51.508Z,100556.81
2023-03-26T00:23:23.007Z,100564.53
2023-03-26T00:23:56.561Z,100566.16
2023-03-26T00:24:29.743Z,100564.13
2023-03-26T00:25:01.474Z,100560.06
2023-03-26T00:25:34.203Z,100566.16
2023-03-26T00:26:10.494Z,100568.19
2023-03-26T00:26:42.608Z,100563.91
2023-03-26T00:27:14.617Z,100561.66
2023-03-26T00:27:46.338Z,100558.00
2023-03-26T00:28:21.462Z,100559.63
2023-03-26T00:28:53.058Z,100562.50
2023-03-26T00:29:24.787Z,100566.78
2023-03-26T00:29:56.430Z,100564.94
2023-03-26T00:30:28.117Z,100554.97
2023-03-26T00:31:01.543Z,100557.22
2023-03-26T00:31:33.213Z,100563.13
2023-03-26T00:32:05.142Z,100557.00
2023-03-26T00:32:36.767Z,100566.59
2023-03-26T00:33:08.484Z,100558.44
2023-03-26T00:33:41.359Z,100561.28
2023-03-26T00:34:15.575Z,100552.72
2023-03-26T00:34:47.269Z,100560.66
2023-03-26T00:35:18.809Z,100562.50
2023-03-26T00:35:54.464Z,100557.22
2023-03-26T00:36:26.734Z,100553.16
2023-03-26T00:37:02.417Z,100554.75
2023-03-26T00:37:33.973Z,100560.47
2023-03-26T00:38:05.558Z,100556.19
2023-03-26T00:38:39.080Z,100559.63
2023-03-26T00:39:10.869Z,100564.94
2023-03-26T00:39:42.760Z,100550.28
2023-03-26T00:40:14.344Z,100557.22
2023-03-26T00:40:48.101Z,100555.16
2023-03-26T00:41:25.331Z,100553.13
2023-03-26T00:41:56.919Z,100558.84
2023-03-26T00:42:29.419Z,100560.13
2023-03-26T00:43:02.321Z,100557.25
2023-03-26T00:43:35.943Z,100556.81
2023-03-26T00:44:07.485Z,100556.81
2023-03-26T00:44:39.101Z,100551.91
2023-03-26T00:45:11.225Z,100549.47
2023-03-26T00:45:42.901Z,100548.66
2023-03-26T00:46:14.826Z,100546.22
2023-03-26T00:46:47.249Z,100549.25
2023-03-26T00:47:18.830Z,100548.66
2023-03-26T00:47:50.658Z,100551.91
2023-03-26T00:48:34.334Z,100547.03
2023-03-26T00:49:14.926Z,100542.56
2023-03-26T00:49:46.883Z,100540.72
2023-03-26T00:50:18.475Z,100545.41
2023-03-26T00:50:50.537Z,100541.38
2023-03-26T00:51:22.246Z,100547.22
2023-03-26T00:51:53.844Z,100540.09
2023-03-26T00:52:28.525Z,100544.22
2023-03-26T00:53:00.045Z,100542.53
2023-03-26T00:53:32.205Z,100544.38
2023-03-26T00:54:08.161Z,100548.25
2023-03-26T00:54:40.228Z,100543.34
2023-03-26T00:55:12.830Z,100540.09
2023-03-26T00:55:47.136Z,100542.31
2023-03-26T00:56:19.287Z,100544.97
2023-03-26T00:56:50.925Z,100547.81
2023-03-26T00:57:34.529Z,100540.91
2023-03-26T00:58:10.876Z,100540.91
2023-03-26T00:58:42.632Z,100543.31
2023-03-26T00:59:14.281Z,100545.56
2023-03-26T00:59:46.114Z,100541.72
2023-03-26T01:00:18.878Z,100543.75
2023-03-26T01:00:59.725Z,100546.59
2023-03-26T01:01:32.373Z,100538.25
2023-03-26T01:02:04.907Z,100539.69
2023-03-26T01:02:36.950Z,100533.16
2023-03-26T01:03:57.108Z,100541.72
2023-03-26T01:04:39.558Z,100535.19
2023-03-26T01:05:33.880Z,100534.59
2023-03-26T01:06:08.294Z,100532.72
2023-03-26T01:06:42.257Z,100525.81
2023-03-26T01:07:21.800Z,100531.94
2023-03-26T01:07:54.007Z,100526.66
2023-03-26T01:08:31.478Z,100531.13
2023-03-26T01:09:07.330Z,100531.94
2023-03-26T01:09:45.022Z,100527.25
2023-03-26T01:10:16.553Z,100531.13
2023-03-26T01:10:52.497Z,100531.94
2023-03-26T01:11:27.361Z,100527.47
2023-03-26T01:12:01.951Z,100529.28
2023-03-26T01:12:33.457Z,100524.00
2023-03-26T01:13:05.060Z,100528.69
2023-03-26T01:13:38.172Z,100528.69
2023-03-26T01:14:16.302Z,100524.78
2023-03-26T01:14:50.578Z,100524.19
2023-03-26T01:15:22.590Z,100527.84
2023-03-26T01:15:54.845Z,100521.31
2023-03-26T01:16:31.576Z,100523.91
2023-03-26T01:17:06.848Z,100524.13
2023-03-26T01:17:38.657Z,100524.53
2023-03-26T01:18:13.812Z,100527.44
2023-03-26T01:18:45.911Z,100525.75
2023-03-26T01:19:26.018Z,100527.78
2023-03-26T01:20:06.000Z,100520.06
2023-03-26T01:20:46.887Z,100523.09
2023-03-26T01:21:22.585Z,100513.53
2023-03-26T01:21:54.113Z,100514.75
2023-03-26T01:22:27.303Z,100518.19
2023-03-26T01:23:05.276Z,100524.50
2023-03-26T01:23:46.880Z,100515.56
2023-03-26T01:24:18.404Z,100524.50
2023-03-26T01:24:54.210Z,100519.84
2023-03-26T01:25:28.308Z,100511.28
2023-03-26T01:26:31.234Z,100509.31
2023-03-26T01:27:17.846Z,100520.91
2023-03-26T01:27:50.784Z,100515.56
2023-03-26T01:28:25.241Z,100515.56
2023-03-26T01:28:59.836Z,100511.50
2023-03-26T01:29:54.136Z,100512.72
2023-03-26T01:31:06.672Z,100514.75
2023-03-26T01:32:13.406Z,100512.09
2023-03-26T01:33:16.244Z,100511.50
2023-03-26T01:34:12.324Z,100510.47
2023-03-26T01:34:44.018Z,100513.13
2023-03-26T01:35:30.561Z,100507.00
2023-03-26T01:36:09.392Z,100509.44
2023-03-26T01:36:57.529Z,100505.97
2023-03-26T01:37:37.198Z,100505.56
2023-03-26T01:38:30.505Z,100500.25
2023-03-26T01:39:28.845Z,100504.94
2023-03-26T01:40:07.659Z,100503.31
2023-03-26T01:40:52.371Z,100497.03
2023-03-26T01:41:29.584Z,100503.16
2023-03-26T01:42:10.840Z,100501.94
2023-03-26T01:42:48.969Z,100501.72
2023-03-26T01:43:46.208Z,100498.84
2023-03-26T01:44:35.576Z,100495.38
2023-03-26T01:45:08.520Z,100497.56
2023-03-26T01:45:42.425Z,100490.03
2023-03-26T01:46:15.530Z,100490.69
2023-03-26T01:46:47.871Z,100489.00
2023-03-26T01:47:19.547Z,100488.16
2023-03-26T01:47:51.404Z,100490.97
2023-03-26T01:48:30.404Z,100497.88
2023-03-26T01:49:04.586Z,100493.34
2023-03-26T01:49:36.441Z,100484.41
2023-03-26T01:50:08.717Z,100491.34
2023-03-26T01:50:40.296Z,100483.59
2023-03-26T01:51:13.453Z,100486.88
2023-03-26T01:51:45.288Z,100489.69
2023-03-26T01:52:21.280Z,100480.38
2023-03-26T01:52:52.819Z,100481.75
2023-03-26T01:53:24.657Z,100492.50
2023-03-26T01:53:57.124Z,100483.25
2023-03-26T01:54:30.386Z,100480.19
2023-03-26T01:55:02.802Z,100481.00
2023-03-26T01:55:57.545Z,100478.94
2023-03-26T01:56:42.757Z,100477.56
2023-03-26T01:57:24.183Z,100482.31
2023-03-26T01:58:13.666Z,100475.00
2023-03-26T01:58:57.069Z,100470.47
2023-03-26T01:59:43.751Z,100482.69
2023-03-26T02:00:25.618Z,100476.78
2023-03-26T02:01:06.000Z,100473.94
2023-03-26T02:01:46.027Z,100470.88
2023-03-26T02:02:39.288Z,100472.09
2023-03-26T02:03:21.203Z,100469.66
2023-03-26T02:04:11.436Z,100467.72
2023-03-26T02:04:57.763Z,100468.94
2023-03-26T02:05:33.409Z,100468.94
2023-03-26T02:06:15.666Z,100466.53
2023-03-26T02:06:51.684Z,100467.72
2023-03-26T02:08:11.966Z,100472.69
2023-03-26T02:09:01.488Z,100461.13
2023-03-26T02:09:39.318Z,100468.19
2023-03-26T02:10:18.188Z,100464.94
2023-03-26T02:10:54.671Z,100463.34
2023-03-26T02:11:34.719Z,100467.81
2023-03-26T02:12:07.109Z,100467.38
2023-03-26T02:12:38.858Z,100468.22
2023-03-26T02:13:12.241Z,100464.56
2023-03-26T02:13:45.791Z,100456.84
2023-03-26T02:14:17.473Z,100465.47
2023-03-26T02:14:49.423Z,100463.84
2023-03-26T02:15:22.461Z,100459.16
2023-03-26T02:16:01.798Z,100465.81
2023-03-26T02:16:33.669Z,100456.25
2023-03-26T02:17:06.105Z,100459.72
2023-03-26T02:17:40.417Z,100459.97
2023-03-26T02:18:13.424Z,100461.13
2023-03-26T02:18:47.408Z,100454.00
2023-03-26T02:19:21.830Z,100452.19
2023-03-26T02:19:54.176Z,100458.09
2023-03-26T02:20:30.036Z,100458.09
2023-03-26T02:21:03.667Z,100452.44
2023-03-26T02:21:35.305Z,100448.97
2023-03-26T02:22:11.079Z,100452.84
2023-03-26T02:22:46.009Z,100443.47
2023-03-26T02:23:21.016Z,100443.22
2023-03-26T02:24:02.760Z,100443.06
2023-03-26T02:24:38.413Z,100444.09
2023-03-26T02:25:12.774Z,100444.31
2023-03-26T02:25:44.417Z,100442.50
2023-03-26T02:26:18.370Z,100440.44
2023-03-26T02:27:12.344Z,100462.22
2023-03-26T02:27:46.192Z,100457.75
2023-03-26T02:28:17.941Z,100458.94
2023-03-26T02:28:49.717Z,100451.22
2023-03-26T02:29:21.371Z,100459.34
2023-03-26T02:29:54.363Z,100458.72
2023-03-26T02:30:29.649Z,100459.34
2023-03-26T02:31:03.826Z,100454.06
2023-03-26T02:31:36.025Z,100456.91
2023-03-26T02:32:08.999Z,100451.22
2023-03-26T02:32:40.519Z,100450.81
2023-03-26T02:33:15.275Z,100447.31
2023-03-26T02:33:47.658Z,100452.88
2023-03-26T02:34:20.462Z,100451.72
2023-03-26T02:34:57.386Z,100455.19
2023-03-26T02:35:29.614Z,100449.06
2023-03-26T02:36:05.163Z,100451.72
2023-03-26T02:36:36.911Z,100450.69
2023-03-26T02:37:09.793Z,100453.50
2023-03-26T02:37:46.894Z,100453.91
2023-03-26T02:38:25.268Z,100459.41
2023-03-26T02:39:00.306Z,100459.78
2023-03-26T02:39:34.495Z,100458.97
2023-03-26T02:40:14.058Z,100450.03
2023-03-26T02:40:47.856Z,100451.25
2023-03-26T02:41:19.679Z,100458.19
2023-03-26T02:42:01.463Z,100451.66
2023-03-26T02:42:34.310Z,100450.03
2023-03-26T02:43:06.003Z,100461.84
2023-03-26T02:43:38.756Z,100459.81
2023-03-26T02:44:12.363Z,100455.78
2023-03-26T02:45:16.561Z,100454.97
2023-03-26T02:46:14.595Z,100454.53
2023-03-26T02:46:57.385Z,100454.53
2023-03-26T02:47:47.161Z,100446.22
2023-03-26T02:48:41.586Z,100452.50
2023-03-26T02:49:20.362Z,100446.78
2023-03-26T02:49:51.886Z,100443.94
2023-03-26T02:50:32.497Z,100443.16
2023-03-26T02:51:22.789Z,100438.66
2023-03-26T02:52:06.544Z,100444.53
2023-03-26T02:52:39.474Z,100439.44
2023-03-26T02:53:11.922Z,100435.78
2023-03-26T02:53:46.077Z,100441.06
2023-03-26T02:54:37.046Z,100443.16
2023-03-26T02:55:28.154Z,100434.81
2023-03-26T02:56:03.748Z,100439.91
2023-03-26T02:56:42.875Z,100431.38
2023-03-26T02:57:49.898Z,100435.84
2023-03-26T02:58:25.354Z,100433.59
2023-03-26T02:58:57.437Z,100439.50
2023-03-26T02:59:29.251Z,100432.78
2023-03-26T03:00:33.685Z,100426.91
2023-03-26T03:01:35.029Z,100424.44
2023-03-26T03:02:07.234Z,100434.41
2023-03-26T03:02:40.302Z,100427.13
2023-03-26T03:03:41.535Z,100426.06
2023-03-26T03:04:35.269Z,100430.56
2023-03-26T03:05:08.309Z,100426.06
2023-03-26T03:05:43.234Z,100421.59
2023-03-26T03:06:44.730Z,100431.56
2023-03-26T03:07:16.354Z,100428.91
2023-03-26T03:07:48.271Z,100424.84
2023-03-26T03:08:26.303Z,100420.78
2023-03-26T03:09:15.361Z,100425.06
2023-03-26T03:09:50.628Z,100425.25
2023-03-26T03:10:41.168Z,100423.44
2023-03-26T03:11:24.885Z,100417.53
2023-03-26T03:11:56.771Z,100419.16
2023-03-26T03:12:28.467Z,100426.47
2023-03-26T03:13:00.131Z,100425.66
2023-03-26T03:13:31.668Z,100425.47
2023-03-26T03:14:03.810Z,100423.81
2023-03-26T03:14:37.776Z,100423.00
2023-03-26T03:15:09.696Z,100418.53
2023-03-26T03:15:41.295Z,100423.81
2023-03-26T03:16:14.147Z,100419.16
2023-03-26T03:16:46.164Z,100419.56
2023-03-26T03:17:20.041Z,100416.69
2023-03-26T03:17:51.695Z,100420.97
2023-03-26T03:18:23.412Z,100422.00
2023-03-26T03:18:57.871Z,100423.22
2023-03-26T03:19:37.841Z,100417.31
2023-03-26T03:20:09.687Z,100423.22
2023-03-26T03:20:43.620Z,100423.63
2023-03-26T03:21:15.271Z,100414.44
2023-03-26T03:21:46.874Z,100416.69
2023-03-26T03:22:18.529Z,100419.75
2023-03-26T03:22:52.406Z,100422.59
2023-03-26T03:23:24.050Z,100422.00
2023-03-26T03:24:00.597Z,100421.75
2023-03-26T03:24:36.006Z,100417.09
2023-03-26T03:25:17.580Z,100416.69
2023-03-26T03:25:52.596Z,100415.88
2023-03-26T03:26:29.920Z,100410.38
2023-03-26T03:27:05.531Z,100409.38
2023-03-26T03:27:45.804Z,100409.38
2023-03-26T03:28:19.364Z,100400.41
2023-03-26T03:28:51.112Z,100406.56
2023-03-26T03:29:23.718Z,100407.38
2023-03-26T03:29:55.944Z,100411.84
2023-03-26T03:30:47.060Z,100407.97
2023-03-26T03:31:26.470Z,100401.63
2023-03-26T03:32:02.565Z,100403.88
2023-03-26T03:32:46.427Z,100402.66
2023-03-26T03:33:24.072Z,100400.00
2023-03-26T03:33:55.673Z,100401.63
2023-03-26T03:34:28.071Z,100396.97
2023-03-26T03:34:59.831Z,100396.75
2023-03-26T03:35:32.038Z,100402.84
2023-03-26T03:36:10.517Z,100402.84
2023-03-26T03:36:52.487Z,100408.19
2023-03-26T03:37:46.992Z,100401.22
2023-03-26T03:38:19.264Z,100402.25
2023-03-26T03:38:53.479Z,100401.63
2023-03-26T03:39:26.786Z,100399.00
2023-03-26T03:39:58.489Z,100403.25
2023-03-26T03:40:32.285Z,100405.34
2023-03-26T03:41:04.173Z,100405.72
2023-03-26T03:41:38.616Z,100402.25
2023-03-26T03:42:15.737Z,100398.78
2023-03-26T03:42:47.414Z,100403.91
2023-03-26T03:43:30.344Z,100406.72
2023-03-26T03:44:12.444Z,100405.13
2023-03-26T03:44:44.279Z,100401.66
2023-03-26T03:45:34.070Z,100397.97
2023-03-26T03:46:15.076Z,100402.03
2023-03-26T03:46:53.933Z,100394.72
2023-03-26T03:47:26.140Z,100395.13
2023-03-26T03:47:57.706Z,100395.72
2023-03-26T03:48:40.609Z,100401.84
2023-03-26T03:49:13.460Z,100395.16
2023-03-26T03:49:45.190Z,100398.81
2023-03-26T03:50:17.086Z,100402.88
2023-03-26T03:51:06.333Z,100394.75
2023-03-26T03:51:57.097Z,100390.47
2023-03-26T03:52:37.967Z,100393.53
2023-03-26T03:53:09.781Z,100396.97
2023-03-26T03:53:41.495Z,100389.84
2023-03-26T03:54:14.558Z,100392.28
2023-03-26T03:54:51.908Z,100391.06
2023-03-26T03:55:38.249Z,100386.19
2023-03-26T03:56:10.539Z,100385.59
2023-03-26T03:57:02.109Z,100391.91
2023-03-26T03:57:43.906Z,100388.63
2023-03-26T03:58:24.668Z,100383.13
2023-03-26T03:58:58.488Z,100387.81
2023-03-26T03:59:37.465Z,100384.97
2023-03-26T04:00:13.018Z,100397.19
2023-03-26T04:00:48.809Z,100393.94
2023-03-26T04:01:51.315Z,100386.38
2023-03-26T04:02:36.378Z,100389.41
2023-03-26T04:03:14.332Z,100390.25
2023-03-26T04:03:47.444Z,100393.31
2023-03-26T04:04:21.981Z,100393.13
2023-03-26T04:05:00.735Z,100393.53
2023-03-26T04:05:33.410Z,100393.31
2023-03-26T04:06:08.260Z,100397.59
2023-03-26T04:06:39.984Z,100398.41
2023-03-26T04:07:13.172Z,100384.97
2023-03-26T04:08:02.911Z,100386.19
2023-03-26T04:09:00.682Z,100391.88
2023-03-26T04:09:32.298Z,100392.91
2023-03-26T04:10:09.499Z,100389.84
2023-03-26T04:10:59.618Z,100390.47
2023-03-26T04:12:03.344Z,100391.47
2023-03-26T04:12:43.508Z,100385.38
2023-03-26T04:13:20.159Z,100391.06
2023-03-26T04:14:10.443Z,100390.25
2023-03-26T04:15:01.911Z,100389.44
2023-03-26T04:15:36.023Z,100384.56
2023-03-26T04:16:08.429Z,100383.13
2023-03-26T04:16:40.353Z,100384.97
2023-03-26T04:17:13.620Z,100387.00
2023-03-26T04:17:45.460Z,100387.41
2023-03-26T04:18:20.364Z,100386.19
2023-03-26T04:18:52.193Z,100382.53
2023-03-26T04:19:24.700Z,100379.69
2023-03-26T04:19:56.283Z,100384.13
2023-03-26T04:20:33.870Z,100378.84
2023-03-26T04:21:07.421Z,100382.72
2023-03-26T04:21:39.600Z,100377.84
2023-03-26T04:22:11.937Z,100376.22
2023-03-26T04:22:57.998Z,100382.72
2023-03-26T04:23:32.112Z,100376.00
2023-03-26T04:24:10.911Z,100377.22
2023-03-26T04:25:13.114Z,100369.47
2023-03-26T04:25:54.032Z,100370.28
2023-03-26T04:26:31.637Z,100373.94
2023-03-26T04:27:13.086Z,100373.94
2023-03-26T04:27:46.255Z,100369.88
2023-03-26T04:28:46.336Z,100368.25
2023-03-26T04:29:25.682Z,100365.81
2023-03-26T04:29:58.181Z,100355.22
2023-03-26T04:30:29.829Z,100366.63
2023-03-26T04:31:24.427Z,100360.53
2023-03-26T04:32:06.481Z,100359.69
2023-03-26T04:32:40.373Z,100359.06
2023-03-26T04:33:15.428Z,100353.97
2023-03-26T04:33:48.392Z,100359.69
2023-03-26T04:34:26.002Z,100360.91
2023-03-26T04:35:06.824Z,100359.88
2023-03-26T04:35:41.660Z,100354.38
2023-03-26T04:36:15.904Z,100353.97
2023-03-26T04:36:48.173Z,100353.41
2023-03-26T04:37:32.387Z,100354.38
2023-03-26T04:38:11.925Z,100350.72
2023-03-26T04:38:49.369Z,100347.06
2023-03-26T04:39:22.980Z,100343.00
2023-03-26T04:40:21.984Z,100343.38
2023-03-26T04:41:20.202Z,100338.06
2023-03-26T04:42:05.843Z,100341.75
2023-03-26T04:42:48.451Z,100347.47
2023-03-26T04:43:30.239Z,100337.69
2023-03-26T04:44:31.835Z,100341.34
2023-03-26T04:45:16.389Z,100332.38
2023-03-26T04:45:50.226Z,100336.47
2023-03-26T04:46:24.004Z,100339.72
2023-03-26T04:47:05.232Z,100335.63
2023-03-26T04:47:46.399Z,100336.84
2023-03-26T04:48:18.148Z,100324.63
2023-03-26T04:48:53.549Z,100327.31
2023-03-26T04:49:25.445Z,100327.72
2023-03-26T04:49:57.355Z,100325.88
2023-03-26T04:50:29.248Z,100328.09
2023-03-26T04:51:01.381Z,100321.41
2023-03-26T04:51:38.375Z,100325.88
2023-03-26T04:52:18.056Z,100327.72
2023-03-26T04:53:27.491Z,100318.53
2023-03-26T04:54:02.721Z,100317.72
2023-03-26T04:54:38.901Z,100316.06
2023-03-26T04:55:48.897Z,100319.78
2023-03-26T04:56:47.377Z,100315.69
2023-03-26T04:57:28.810Z,100312.84
2023-03-26T04:58:07.540Z,100305.50
2023-03-26T04:58:59.883Z,100316.50
2023-03-26T04:59:37.192Z,100306.53
2023-03-26T05:00:16.409Z,100307.34
2023-03-26T05:00:50.821Z,100301.63
2023-03-26T05:01:24.385Z,100305.66
2023-03-26T05:01:58.093Z,100306.66
2023-03-26T05:02:32.551Z,100295.66
2023-03-26T05:03:04.382Z,100300.56
2023-03-26T05:03:40.661Z,100302.22
2023-03-26T05:04:15.495Z,100296.72
2023-03-26T05:04:49.887Z,100301.41
2023-03-26T05:05:22.557Z,100302.66
2023-03-26T05:05:55.466Z,100301.44
2023-03-26T05:06:28.604Z,100301.84
2023-03-26T05:07:00.792Z,100298.59
2023-03-26T05:07:41.733Z,100298.00
2023-03-26T05:08:14.759Z,100304.31
2023-03-26T05:08:46.338Z,100299.22
2023-03-26T05:09:28.246Z,100301.66
2023-03-26T05:10:20.588Z,100301.88
2023-03-26T05:11:11.472Z,100301.06
2023-03-26T05:11:43.370Z,100299.44
2023-03-26T05:12:16.456Z,100306.34
2023-03-26T05:13:01.582Z,100308.38
2023-03-26T05:13:38.862Z,100309.19
2023-03-26T05:14:18.847Z,100312.06
2023-03-26T05:14:53.575Z,100305.97
2023-03-26T05:15:35.653Z,100311.25
2023-03-26T05:16:31.783Z,100309.22
2023-03-26T05:17:14.800Z,100302.28
2023-03-26T05:17:46.491Z,100311.03
2023-03-26T05:18:26.411Z,100309.19
2023-03-26T05:18:58.618Z,100312.47
2023-03-26T05:19:35.192Z,100314.28
2023-03-26T05:20:26.736Z,100312.84
2023-03-26T05:20:58.309Z,100312.66
2023-03-26T05:21:31.277Z,100310.81
2023-03-26T05:22:03.180Z,100312.84
2023-03-26T05:22:38.590Z,100309.78
2023-03-26T05:23:24.523Z,100304.28
2023-03-26T05:24:06.426Z,100308.16
2023-03-26T05:24:38.085Z,100310.81
2023-03-26T05:25:10.556Z,100307.75
2023-03-26T05:25:42.154Z,100306.72
2023-03-26T05:26:22.223Z,100304.69
2023-03-26T05:26:54.550Z,100304.69
2023-03-26T05:27:28.185Z,100301.84
2023-03-26T05:27:59.743Z,100307.56
2023-03-26T05:28:37.991Z,100303.25
2023-03-26T05:29:22.368Z,100299.19
2023-03-26T05:30:01.345Z,100299.81
2023-03-26T05:30:34.055Z,100299.41
2023-03-26T05:31:08.137Z,100296.13
2023-03-26T05:31:44.247Z,100295.31
2023-03-26T05:32:15.938Z,100293.69
2023-03-26T05:32:51.916Z,100296.53
2023-03-26T05:33:29.189Z,100290.00
2023-03-26T05:34:11.308Z,100293.28
2023-03-26T05:34:43.048Z,100294.09
2023-03-26T05:35:17.240Z,100292.47
2023-03-26T05:35:59.526Z,100288.81
2023-03-26T05:36:31.249Z,100285.78
2023-03-26T05:37:24.756Z,100285.56
2023-03-26T05:38:04.984Z,100285.56
2023-03-26T05:38:37.047Z,100290.00
2023-03-26T05:39:10.737Z,100293.69
2023-03-26T05:40:01.433Z,100292.47
2023-03-26T05:40:46.210Z,100281.09
2023-03-26T05:41:22.532Z,100289.19
2023-03-26T05:41:54.926Z,100283.50
2023-03-26T05:42:32.542Z,100281.47
2023-03-26T05:43:22.378Z,100284.31
2023-03-26T05:44:14.219Z,100287.19
2023-03-26T05:44:45.921Z,100279.47
2023-03-26T05:45:25.762Z,100282.72
2023-03-26T05:45:57.383Z,100277.22
2023-03-26T05:46:32.349Z,100281.09
2023-03-26T05:47:04.732Z,100281.50
2023-03-26T05:47:36.492Z,100283.56
2023-03-26T05:48:08.037Z,100277.63
2023-03-26T05:48:39.742Z,100278.84
2023-03-26T05:49:12.141Z,100274.56
2023-03-26T05:49:43.896Z,100285.16
2023-03-26T05:50:15.872Z,100272.13
2023-03-26T05:50:49.820Z,100276.59
2023-03-26T05:51:23.486Z,100280.66
2023-03-26T05:52:24.300Z,100273.34
2023-03-26T05:53:17.338Z,100270.88
2023-03-26T05:54:21.167Z,100270.66
2023-03-26T05:55:13.384Z,100259.06
2023-03-26T05:56:16.842Z,100267.19
2023-03-26T05:57:06.859Z,100260.84
2023-03-26T05:57:57.256Z,100255.41
2023-03-26T05:58:47.678Z,100250.50
2023-03-26T05:59:37.599Z,100251.94
2023-03-26T06:00:41.059Z,100251.50
2023-03-26T06:01:18.534Z,100246.56
2023-03-26T06:02:10.205Z,100243.50
2023-03-26T06:03:20.137Z,100241.47
2023-03-26T06:04:12.835Z,100241.06
2023-03-26T06:04:51.137Z,100239.47
2023-03-26T06:05:46.163Z,100237.41
2023-03-26T06:06:23.918Z,100233.78
2023-03-26T06:07:02.147Z,100238.28
2023-03-26T06:07:34.022Z,100232.97
2023-03-26T06:08:15.920Z,100235.81
2023-03-26T06:09:01.154Z,100237.03
2023-03-26T06:09:34.490Z,100229.91
2023-03-26T06:10:06.781Z,100232.56
2023-03-26T06:10:39.346Z,100229.28
2023-03-26T06:11:12.606Z,100229.44
2023-03-26T06:11:44.308Z,100234.50
2023-03-26T06:12:16.210Z,100222.63
2023-03-26T06:12:49.651Z,100229.53
2023-03-26T06:13:21.483Z,100231.16
2023-03-26T06:13:54.913Z,100227.25
2023-03-26T06:14:26.614Z,100228.28
2023-03-26T06:15:12.489Z,100222.75
2023-03-26T06:15:52.369Z,100225.41
2023-03-26T06:16:47.013Z,100221.94
2023-03-26T06:17:26.089Z,100217.25
2023-03-26T06:18:11.248Z,100217.25
2023-03-26T06:19:04.111Z,100214.00
2023-03-26T06:19:44.016Z,100214.44
2023-03-26T06:20:25.781Z,100218.13
2023-03-26T06:20:58.775Z,100214.88
2023-03-26T06:21:53.934Z,100203.84
2023-03-26T06:22:29.066Z,100205.03
2023-03-26T06:23:22.810Z,100208.72
2023-03-26T06:24:16.464Z,100207.09
2023-03-26T06:25:08.493Z,100202.22
2023-03-26T06:25:56.138Z,100200.81
2023-03-26T06:26:51.227Z,100198.38
2023-03-26T06:27:43.031Z,100193.88
2023-03-26T06:28:47.418Z,100197.75
2023-03-26T06:29:33.397Z,100192.03
2023-03-26T06:30:18.117Z,100195.72
2023-03-26T06:31:07.019Z,100190.84
2023-03-26T06:31:41.884Z,100193.50
2023-03-26T06:32:23.362Z,100191.88
2023-03-26T06:33:10.970Z,100197.38
2023-03-26T06:33:49.087Z,100191.28
2023-03-26T06:34:20.971Z,100198.19
2023-03-26T06:34:52.899Z,100192.09
2023-03-26T06:35:24.805Z,100199.81
2023-03-26T06:35:56.771Z,100197.97
2023-03-26T06:36:29.110Z,100195.31
2023-03-26T06:37:00.700Z,100199.59
2023-03-26T06:37:33.061Z,100200.41
2023-03-26T06:38:07.675Z,100197.75
2023-03-26T06:38:39.551Z,100194.09
2023-03-26T06:39:12.282Z,100196.31
2023-03-26T06:39:52.224Z,100200.59
2023-03-26T06:40:27.063Z,100187.94
2023-03-26T06:41:10.728Z,100193.84
2023-03-26T06:41:45.002Z,100197.50
2023-03-26T06:43:06.841Z,100195.47
2023-03-26T06:43:44.743Z,100196.47
2023-03-26T06:44:36.267Z,100195.88
2023-03-26T06:45:27.805Z,100198.31
2023-03-26T06:46:18.739Z,100187.94
2023-03-26T06:47:08.904Z,100193.22
2023-03-26T06:47:55.473Z,100196.69
2023-03-26T06:48:48.121Z,100202.22
2023-03-26T06:49:39.342Z,100200.16
2023-03-26T06:50:21.699Z,100192.22
2023-03-26T06:50:59.085Z,100199.13
2023-03-26T06:51:48.872Z,100201.78
2023-03-26T06:52:40.693Z,100190.38
2023-03-26T06:53:30.733Z,100198.31
2023-03-26T06:54:20.841Z,100194.84
2023-03-26T06:55:01.645Z,100193.44
2023-03-26T06:55:54.129Z,100192.63
2023-03-26T06:56:25.743Z,100196.91
2023-03-26T06:57:09.453Z,100189.19
2023-03-26T06:57:59.635Z,100193.22
2023-03-26T06:58:57.088Z,100193.22
2023-03-26T06:59:47.028Z,100188.75
2023-03-26T07:00:37.029Z,100186.25
2023-03-26T07:01:26.942Z,100189.31
2023-03-26T07:02:17.209Z,100193.59
2023-03-26T07:03:07.256Z,100194.41
2023-03-26T07:04:00.674Z,100190.75
2023-03-26T07:04:50.792Z,100186.84
2023-03-26T07:05:41.459Z,100190.31
2023-03-26T07:06:35.750Z,100189.06
2023-03-26T07:07:26.009Z,100189.88
2023-03-26T07:08:16.531Z,100182.91
2023-03-26T07:09:06.520Z,100182.47
2023-03-26T07:10:13.974Z,100183.50
2023-03-26T07:10:56.805Z,100188.00
2023-03-26T07:11:48.899Z,100183.28
2023-03-26T07:12:38.941Z,100181.66
2023-03-26T07:13:29.130Z,100181.44
2023-03-26T07:14:03.574Z,100181.22
2023-03-26T07:14:47.159Z,100183.28
2023-03-26T07:15:48.470Z,100177.97
2023-03-26T07:16:43.669Z,100181.50
2023-03-26T07:17:34.115Z,100176.78
2023-03-26T07:18:10.359Z,100180.50
2023-03-26T07:18:44.366Z,100182.13
2023-03-26T07:19:35.821Z,100173.22
2023-03-26T07:20:08.461Z,100176.84
2023-03-26T07:20:40.582Z,100180.94
2023-03-26T07:21:12.968Z,100170.78
2023-03-26T07:21:46.572Z,100169.97
2023-03-26T07:22:47.413Z,100171.38
2023-03-26T07:23:37.821Z,100173.63